首页
METAR-TAF:

METAR-TAF

机场 :

突尼斯, 突尼斯

突尼斯-迦太基国际机场

纬度: 36-50N, 经度: 010-14E, 海拔: 3米

当前天气观测

该预报发布于31分钟前的21:30 UTC
风速8节,风向西,在西南西北之间变化
温度 14°C
湿度 55%
气压 1022 hPa
能见度10公里或以上
少量云层高于1600英尺
散云层高于4000英尺

METAR: DTTA 172130Z 27008KT 230V310 9999 FEW016 SCT040 14/05 Q1022 NOSIG

时间: 23:01 (22:01 UTC)

预报

该预报发布于5小时和1分钟前的17:00 UTC
预报有效从17日的 18点(UTC)到 18日的 18点(UTC)
风速15节,风向西北
能见度10公里或以上
散云层高于1600英尺

TAF: DTTA 171700Z 1718/1818 32015KT 9999 SCT016

超过4000个机场的气象观测和天气预报(METAR&TAF报告)。

可查询的气象台以黄色和红色小点在地图上表示。

将鼠标移到小点上方,可查看气象台名称。

然后点击查看天气观测和预报。

如需切换地图:点击带黑十字的绿色按钮放大地图;点击带横线的绿色按钮缩小地图;或者点击绿色箭头查看邻近地区的地图。


METAR-TAF: